createdAt,value
2023-02-03T00:01:39.221Z,101761.88
2023-02-03T00:04:05.805Z,101758.47
2023-02-03T00:06:32.654Z,101771.91
2023-02-03T00:08:59.682Z,101755.34
2023-02-03T00:11:26.530Z,101760.94
2023-02-03T00:13:53.284Z,101776.66
2023-02-03T00:16:20.006Z,101774.69
2023-02-03T00:18:46.587Z,101774.44
2023-02-03T00:21:15.243Z,101771.38
2023-02-03T00:23:42.175Z,101767.16
2023-02-03T00:26:12.471Z,101764.59
2023-02-03T00:28:39.080Z,101773.84
2023-02-03T00:31:05.783Z,101770.78
2023-02-03T00:33:33.978Z,101773.59
2023-02-03T00:36:06.962Z,101769.66
2023-02-03T00:38:33.608Z,101773.59
2023-02-03T00:41:00.425Z,101773.59
2023-02-03T00:43:26.962Z,101764.34
2023-02-03T00:45:53.622Z,101768.00
2023-02-03T00:48:20.909Z,101773.59
2023-02-03T00:50:47.902Z,101769.63
2023-02-03T00:53:14.577Z,101765.66
2023-02-03T00:55:42.858Z,101768.13
2023-02-03T00:58:09.380Z,101757.66
2023-02-03T01:00:35.925Z,101764.28
2023-02-03T01:03:02.652Z,101768.72
2023-02-03T01:05:29.289Z,101761.69
2023-02-03T01:07:55.853Z,101763.28
2023-02-03T01:10:22.792Z,101762.22
2023-02-03T01:12:49.368Z,101763.28
2023-02-03T01:15:15.942Z,101764.66
2023-02-03T01:17:42.675Z,101768.53
2023-02-03T01:20:12.418Z,101766.25
2023-02-03T01:22:41.306Z,101767.88
2023-02-03T01:25:08.392Z,101764.50
2023-02-03T01:27:34.957Z,101776.44
2023-02-03T01:30:01.565Z,101771.34
2023-02-03T01:32:28.163Z,101773.78
2023-02-03T01:34:54.723Z,101774.31
2023-02-03T01:37:21.279Z,101781.28
2023-02-03T01:39:48.003Z,101778.88
2023-02-03T01:42:14.922Z,101777.84
2023-02-03T01:44:41.516Z,101773.75
2023-02-03T01:47:43.694Z,101782.69
2023-02-03T01:50:12.940Z,101778.78
2023-02-03T01:52:40.342Z,101779.34
2023-02-03T01:55:08.125Z,101783.53
2023-02-03T01:57:36.585Z,101785.47
2023-02-03T02:00:03.356Z,101787.16
2023-02-03T02:02:30.114Z,101785.47
2023-02-03T02:05:06.452Z,101778.50
2023-02-03T02:07:33.729Z,101786.38
2023-02-03T02:10:00.353Z,101790.28
2023-02-03T02:12:26.991Z,101788.84
2023-02-03T02:14:53.886Z,101793.31
2023-02-03T02:17:32.594Z,101792.25
2023-02-03T02:20:02.114Z,101783.25
2023-02-03T02:22:44.037Z,101790.53
2023-02-03T02:25:26.026Z,101787.50
2023-02-03T02:28:08.459Z,101793.94
2023-02-03T02:30:47.198Z,101799.00
2023-02-03T02:33:22.915Z,101799.50
2023-02-03T02:36:00.890Z,101785.19
2023-02-03T02:38:39.637Z,101798.31
2023-02-03T02:41:12.269Z,101791.06
2023-02-03T02:43:42.919Z,101797.13
2023-02-03T02:46:11.068Z,101791.22
2023-02-03T02:48:48.730Z,101796.44
2023-02-03T02:51:15.699Z,101793.53
2023-02-03T02:53:55.745Z,101794.88
2023-02-03T02:56:22.340Z,101800.13
2023-02-03T02:58:49.235Z,101792.22
2023-02-03T03:01:16.713Z,101795.03
2023-02-03T03:03:45.314Z,101800.25
2023-02-03T03:06:13.533Z,101790.47
2023-02-03T03:08:40.134Z,101790.97
2023-02-03T03:11:06.764Z,101794.81
2023-02-03T03:13:34.671Z,101787.81
2023-02-03T03:16:01.818Z,101782.69
2023-02-03T03:18:33.277Z,101781.72
2023-02-03T03:21:06.219Z,101778.59
2023-02-03T03:23:34.321Z,101776.28
2023-02-03T03:26:15.229Z,101775.44
2023-02-03T03:28:44.792Z,101777.41
2023-02-03T03:31:11.527Z,101778.50
2023-02-03T03:33:38.242Z,101778.16
2023-02-03T03:36:17.114Z,101777.78
2023-02-03T03:38:45.009Z,101767.63
2023-02-03T03:41:31.936Z,101781.78
2023-02-03T03:43:59.543Z,101777.94
2023-02-03T03:46:27.488Z,101782.63
2023-02-03T03:48:58.381Z,101779.25
2023-02-03T03:51:25.121Z,101784.50
2023-02-03T03:53:51.769Z,101781.22
2023-02-03T03:56:20.758Z,101782.41
2023-02-03T03:58:47.449Z,101788.56
2023-02-03T04:01:14.091Z,101783.00
2023-02-03T04:03:47.543Z,101792.47
2023-02-03T04:06:14.133Z,101781.78
2023-02-03T04:08:40.813Z,101785.06
2023-02-03T04:11:07.525Z,101787.28
2023-02-03T04:13:34.157Z,101783.28
2023-02-03T04:16:00.752Z,101782.06
2023-02-03T04:18:27.587Z,101780.72
2023-02-03T04:20:54.243Z,101785.47
2023-02-03T04:23:20.808Z,101785.47
2023-02-03T04:25:47.662Z,101786.56
2023-02-03T04:28:14.324Z,101791.03
2023-02-03T04:30:40.954Z,101788.25
2023-02-03T04:33:07.689Z,101790.78
2023-02-03T04:35:34.254Z,101784.13
2023-02-03T04:38:00.809Z,101781.09
2023-02-03T04:40:27.835Z,101788.63
2023-02-03T04:42:54.577Z,101781.09
2023-02-03T04:45:21.141Z,101780.50
2023-02-03T04:47:54.047Z,101764.00
2023-02-03T04:50:20.949Z,101778.69
2023-02-03T04:52:47.718Z,101776.63
2023-02-03T04:55:14.426Z,101774.56
2023-02-03T04:57:41.035Z,101777.75
2023-02-03T05:00:08.061Z,101781.25
2023-02-03T05:02:34.754Z,101777.50
2023-02-03T05:05:01.296Z,101772.41
2023-02-03T05:07:27.922Z,101784.53
2023-02-03T05:09:54.700Z,101776.66
2023-02-03T05:12:21.375Z,101786.72
2023-02-03T05:14:48.017Z,101784.06
2023-02-03T05:17:14.725Z,101776.31
2023-02-03T05:19:41.404Z,101775.69
2023-02-03T05:22:08.065Z,101776.19
2023-02-03T05:24:34.721Z,101786.34
2023-02-03T05:27:01.341Z,101776.78
2023-02-03T05:29:27.954Z,101778.00
2023-02-03T05:31:54.605Z,101779.31
2023-02-03T05:34:21.311Z,101782.00
2023-02-03T05:36:47.852Z,101784.16
2023-02-03T05:39:14.534Z,101790.84
2023-02-03T05:41:53.474Z,101797.00
2023-02-03T05:44:24.379Z,101796.88
2023-02-03T05:46:51.320Z,101800.28
2023-02-03T05:49:17.968Z,101803.09
2023-02-03T05:51:44.757Z,101804.56
2023-02-03T05:54:11.327Z,101802.81
2023-02-03T05:56:38.520Z,101807.44
2023-02-03T05:59:05.606Z,101806.72
2023-02-03T06:01:32.687Z,101802.69
2023-02-03T06:03:59.488Z,101803.19
2023-02-03T06:06:27.533Z,101797.25
2023-02-03T06:08:57.255Z,101798.94
2023-02-03T06:11:26.872Z,101800.88
2023-02-03T06:13:53.557Z,101807.06
2023-02-03T06:16:20.192Z,101816.50
2023-02-03T06:18:46.861Z,101812.63
2023-02-03T06:21:13.729Z,101809.63
2023-02-03T06:23:40.372Z,101812.16
2023-02-03T06:26:07.055Z,101818.34
2023-02-03T06:28:33.824Z,101822.81
2023-02-03T06:31:00.744Z,101821.97
2023-02-03T06:33:27.482Z,101824.97
2023-02-03T06:35:54.351Z,101830.19
2023-02-03T06:38:21.027Z,101836.00
2023-02-03T06:40:48.089Z,101832.00
2023-02-03T06:43:14.941Z,101828.13
2023-02-03T06:45:41.695Z,101834.53
2023-02-03T06:48:08.832Z,101837.59
2023-02-03T06:50:36.221Z,101836.97
2023-02-03T06:53:03.002Z,101842.16
2023-02-03T06:55:29.629Z,101850.06
2023-02-03T06:57:56.237Z,101856.00
2023-02-03T07:00:23.132Z,101853.22
2023-02-03T07:02:56.369Z,101852.72
2023-02-03T07:05:23.105Z,101852.84
2023-02-03T07:07:50.110Z,101855.16
2023-02-03T07:10:16.868Z,101861.34
2023-02-03T07:12:44.408Z,101862.81
2023-02-03T07:15:11.604Z,101865.00
2023-02-03T07:17:38.330Z,101865.00
2023-02-03T07:20:05.276Z,101862.69
2023-02-03T07:22:31.908Z,101870.66
2023-02-03T07:24:58.601Z,101870.56
2023-02-03T07:27:25.548Z,101872.72
2023-02-03T07:29:52.127Z,101874.88
2023-02-03T07:32:18.842Z,101876.81
2023-02-03T07:34:45.438Z,101875.97
2023-02-03T07:37:11.981Z,101874.28
2023-02-03T07:39:38.663Z,101872.59
2023-02-03T07:42:05.366Z,101871.72
2023-02-03T07:44:32.124Z,101870.28
2023-02-03T07:46:58.804Z,101875.84
2023-02-03T07:49:25.483Z,101877.53
2023-02-03T07:51:52.047Z,101880.31
2023-02-03T07:54:18.717Z,101884.22
2023-02-03T07:56:45.593Z,101898.13
2023-02-03T07:59:12.140Z,101887.00
2023-02-03T08:01:38.921Z,101893.03
2023-02-03T08:04:05.816Z,101895.66
2023-02-03T08:06:32.826Z,101887.94
2023-02-03T08:08:59.527Z,101898.88
2023-02-03T08:11:26.101Z,101887.06
2023-02-03T08:13:52.846Z,101892.53
2023-02-03T08:16:19.667Z,101898.75
2023-02-03T08:18:46.300Z,101895.97
2023-02-03T08:21:12.906Z,101902.50
2023-02-03T08:23:39.763Z,101902.41
2023-02-03T08:26:06.506Z,101914.97
2023-02-03T08:28:33.049Z,101905.88
2023-02-03T08:31:00.005Z,101914.88
2023-02-03T08:33:26.691Z,101925.53
2023-02-03T08:35:53.252Z,101909.56
2023-02-03T08:38:19.964Z,101919.56
2023-02-03T08:40:46.922Z,101923.16
2023-02-03T08:43:13.562Z,101924.13
2023-02-03T08:45:40.816Z,101921.66
2023-02-03T08:48:07.642Z,101929.19
2023-02-03T08:50:34.262Z,101931.47
2023-02-03T08:53:00.949Z,101938.81
2023-02-03T08:55:27.525Z,101944.34
2023-02-03T08:57:54.092Z,101929.25
2023-02-03T09:00:20.929Z,101937.97
2023-02-03T09:02:47.495Z,101939.69
2023-02-03T09:05:14.263Z,101946.00
2023-02-03T09:07:40.995Z,101942.78
2023-02-03T09:10:07.625Z,101951.34
2023-02-03T09:12:34.172Z,101950.81
2023-02-03T09:15:01.043Z,101957.63
2023-02-03T09:17:28.275Z,101958.75
2023-02-03T09:19:54.907Z,101956.00
2023-02-03T09:22:21.666Z,101963.75
2023-02-03T09:24:50.693Z,101961.09
2023-02-03T09:27:17.365Z,101962.00
2023-02-03T09:29:45.622Z,101965.38
2023-02-03T09:32:15.131Z,101963.22
2023-02-03T09:34:42.142Z,101964.31
2023-02-03T09:37:09.180Z,101976.06
2023-02-03T09:39:35.767Z,101978.13
2023-02-03T09:42:10.726Z,101976.13
2023-02-03T09:44:43.544Z,101973.50
2023-02-03T09:47:21.348Z,101976.03
2023-02-03T09:49:51.640Z,101982.06
2023-02-03T09:52:19.046Z,101981.25
2023-02-03T09:54:48.670Z,101978.63
2023-02-03T09:57:18.435Z,101993.69
2023-02-03T09:59:45.064Z,101992.94
2023-02-03T10:02:18.778Z,101991.22
2023-02-03T10:04:58.208Z,101984.09
2023-02-03T10:07:32.347Z,101991.63
2023-02-03T10:10:19.207Z,101978.38
2023-02-03T10:12:51.876Z,101988.56
2023-02-03T10:15:21.496Z,101985.41
2023-02-03T10:17:53.295Z,101974.59
2023-02-03T10:20:22.114Z,101978.91
2023-02-03T10:22:49.775Z,101976.06
2023-02-03T10:25:25.556Z,101977.50
2023-02-03T10:27:53.305Z,101986.31
2023-02-03T10:30:20.974Z,101988.44
2023-02-03T10:33:17.856Z,101985.66
2023-02-03T10:35:53.406Z,101989.59
2023-02-03T10:38:24.847Z,101989.41
2023-02-03T10:40:51.495Z,101993.19
2023-02-03T10:43:37.021Z,101993.97
2023-02-03T10:46:03.691Z,101986.16
2023-02-03T10:48:30.444Z,101992.03
2023-02-03T10:50:57.099Z,101993.06
2023-02-03T10:53:23.701Z,101994.34
2023-02-03T10:55:51.397Z,101997.28
2023-02-03T10:58:23.410Z,102000.69
2023-02-03T11:00:51.783Z,101990.56
2023-02-03T11:03:28.694Z,102002.53
2023-02-03T11:06:21.696Z,101989.72
2023-02-03T11:08:49.013Z,101996.03
2023-02-03T11:11:25.023Z,101997.41
2023-02-03T11:14:04.038Z,101989.88
2023-02-03T11:16:30.773Z,101991.91
2023-02-03T11:18:57.391Z,101990.56
2023-02-03T11:21:28.932Z,101984.56
2023-02-03T11:24:01.786Z,101986.31
2023-02-03T11:26:32.643Z,101987.03
2023-02-03T11:29:00.543Z,101979.94
2023-02-03T11:31:28.426Z,101970.16
2023-02-03T11:33:57.195Z,101978.06
2023-02-03T11:36:26.378Z,101970.00
2023-02-03T11:38:52.981Z,101969.28
2023-02-03T11:41:21.396Z,101965.97
2023-02-03T11:43:49.626Z,101965.97
2023-02-03T11:46:16.588Z,101963.25
2023-02-03T11:48:50.352Z,101967.28
2023-02-03T11:51:26.479Z,101970.38
2023-02-03T11:54:05.364Z,101958.91
2023-02-03T11:56:34.995Z,101956.75
2023-02-03T11:59:07.865Z,101955.19
2023-02-03T12:01:57.191Z,101957.38
2023-02-03T12:04:44.994Z,101956.69
2023-02-03T12:07:17.876Z,101968.88
2023-02-03T12:09:47.290Z,101960.06
2023-02-03T12:12:20.650Z,101962.25
2023-02-03T12:15:16.695Z,101962.78
2023-02-03T12:17:46.250Z,101946.59
2023-02-03T12:20:12.899Z,101952.81
2023-02-03T12:22:48.929Z,101954.03
2023-02-03T12:25:38.865Z,101944.88
2023-02-03T12:28:32.197Z,101946.41
2023-02-03T12:31:04.878Z,101941.34
2023-02-03T12:33:33.170Z,101949.09
2023-02-03T12:36:08.313Z,101938.44
2023-02-03T12:38:52.352Z,101924.19
2023-02-03T12:41:21.037Z,101921.56
2023-02-03T12:43:52.561Z,101908.72
2023-02-03T12:46:28.260Z,101907.38
2023-02-03T12:49:15.449Z,101912.84
2023-02-03T12:52:00.991Z,101901.44
2023-02-03T12:54:46.364Z,101895.50
2023-02-03T12:57:21.550Z,101887.03
2023-02-03T12:59:56.994Z,101884.91
2023-02-03T13:02:25.309Z,101880.63
2023-02-03T13:04:57.206Z,101878.75
2023-02-03T13:07:53.347Z,101878.72
2023-02-03T13:10:23.550Z,101870.94
2023-02-03T13:12:51.431Z,101860.06
2023-02-03T13:15:31.349Z,101871.59
2023-02-03T13:18:04.560Z,101876.63
2023-02-03T13:20:34.866Z,101868.16
2023-02-03T13:23:02.414Z,101868.28
2023-02-03T13:25:47.867Z,101857.19
2023-02-03T13:28:14.534Z,101853.28
2023-02-03T13:30:44.563Z,101847.38
2023-02-03T13:33:14.314Z,101858.97
2023-02-03T13:35:44.004Z,101853.06
2023-02-03T13:38:13.395Z,101852.44
2023-02-03T13:40:43.165Z,101846.69
2023-02-03T13:43:28.411Z,101852.69
2023-02-03T13:46:03.948Z,101851.91
2023-02-03T13:48:31.208Z,101836.28
2023-02-03T13:51:05.845Z,101837.03
2023-02-03T13:53:36.496Z,101831.13
2023-02-03T13:56:03.855Z,101832.50
2023-02-03T13:58:31.434Z,101831.91
2023-02-03T14:01:01.446Z,101829.50
2023-02-03T14:03:28.090Z,101815.88
2023-02-03T14:05:55.375Z,101819.66
2023-02-03T14:08:28.030Z,101823.75
2023-02-03T14:11:13.715Z,101822.78
2023-02-03T14:13:40.355Z,101813.22
2023-02-03T14:16:33.420Z,101815.44
2023-02-03T14:19:00.117Z,101818.75
2023-02-03T14:21:26.854Z,101820.53
2023-02-03T14:23:58.395Z,101815.72
2023-02-03T14:26:30.050Z,101808.97
2023-02-03T14:28:56.648Z,101812.88
2023-02-03T14:31:23.971Z,101818.47
2023-02-03T14:33:51.591Z,101813.06
2023-02-03T14:36:31.650Z,101817.81
2023-02-03T14:38:58.890Z,101817.69
2023-02-03T14:41:38.368Z,101824.94
2023-02-03T14:44:14.903Z,101818.56
2023-02-03T14:46:53.630Z,101821.53
2023-02-03T14:49:23.956Z,101816.00
2023-02-03T14:52:09.613Z,101816.94
2023-02-03T14:54:36.242Z,101813.09
2023-02-03T14:57:22.092Z,101808.09
2023-02-03T14:59:56.649Z,101809.88
2023-02-03T15:02:28.969Z,101812.19
2023-02-03T15:05:14.268Z,101810.88
2023-02-03T15:07:49.724Z,101813.47
2023-02-03T15:10:23.257Z,101815.53
2023-02-03T15:12:50.082Z,101814.72
2023-02-03T15:15:30.330Z,101813.09
2023-02-03T15:17:58.065Z,101811.44
2023-02-03T15:20:30.701Z,101814.31
2023-02-03T15:22:57.341Z,101810.41
2023-02-03T15:25:29.730Z,101807.59
2023-02-03T15:28:10.142Z,101803.97
2023-02-03T15:30:37.047Z,101807.69
2023-02-03T15:33:08.291Z,101809.69
2023-02-03T15:35:35.617Z,101813.41
2023-02-03T15:38:13.176Z,101813.16
2023-02-03T15:40:45.394Z,101815.16
2023-02-03T15:43:12.077Z,101814.06
2023-02-03T15:45:46.047Z,101822.25
2023-02-03T15:48:12.615Z,101809.03
2023-02-03T15:50:46.567Z,101822.03
2023-02-03T15:53:16.291Z,101808.78
2023-02-03T15:55:45.771Z,101819.78
2023-02-03T15:58:25.592Z,101821.25
2023-02-03T16:00:56.153Z,101818.44
2023-02-03T16:03:23.842Z,101824.66
2023-02-03T16:05:50.666Z,101827.22
2023-02-03T16:08:32.458Z,101829.75
2023-02-03T16:10:59.844Z,101834.28
2023-02-03T16:13:27.097Z,101828.41
2023-02-03T16:15:58.310Z,101828.97
2023-02-03T16:18:24.985Z,101833.50
2023-02-03T16:20:51.601Z,101825.63
2023-02-03T16:23:22.377Z,101829.00
2023-02-03T16:26:12.478Z,101827.91
2023-02-03T16:28:57.621Z,101822.84
2023-02-03T16:31:43.116Z,101816.94
2023-02-03T16:34:37.478Z,101825.41
2023-02-03T16:37:32.518Z,101823.44
2023-02-03T16:40:17.756Z,101826.00
2023-02-03T16:43:02.985Z,101822.34
2023-02-03T16:45:48.438Z,101826.59
2023-02-03T16:48:33.389Z,101827.44
2023-02-03T16:51:03.001Z,101821.81
2023-02-03T16:53:30.649Z,101833.66
2023-02-03T16:55:57.922Z,101828.84
2023-02-03T16:58:24.613Z,101829.72
2023-02-03T17:00:52.352Z,101831.41
2023-02-03T17:03:19.998Z,101831.13
2023-02-03T17:05:46.793Z,101826.88
2023-02-03T17:08:13.771Z,101833.91
2023-02-03T17:10:41.247Z,101825.19
2023-02-03T17:13:08.107Z,101828.56
2023-02-03T17:15:44.773Z,101833.66
2023-02-03T17:18:11.708Z,101832.53
2023-02-03T17:20:38.624Z,101836.75
2023-02-03T17:23:05.325Z,101831.69
2023-02-03T17:25:32.536Z,101831.13
2023-02-03T17:27:59.104Z,101836.47
2023-02-03T17:30:26.015Z,101841.81
2023-02-03T17:32:52.579Z,101835.91
2023-02-03T17:35:19.186Z,101836.75
2023-02-03T17:37:45.877Z,101843.25
2023-02-03T17:53:53.012Z,101845.41
2023-02-03T17:56:20.525Z,101854.09
2023-02-03T17:58:47.076Z,101859.97
2023-02-03T18:01:16.434Z,101862.22
2023-02-03T18:03:44.053Z,101857.66
2023-02-03T18:06:10.765Z,101857.91
2023-02-03T18:08:37.522Z,101871.94
2023-02-03T18:11:04.854Z,101873.88
2023-02-03T18:13:34.451Z,101876.38
2023-02-03T18:16:01.243Z,101877.22
2023-02-03T18:18:29.096Z,101876.09
2023-02-03T18:20:55.708Z,101883.34
2023-02-03T18:23:22.674Z,101788.34
2023-02-03T18:25:53.149Z,101879.38
2023-02-03T18:28:19.715Z,101880.16
2023-02-03T18:30:46.893Z,101883.78
2023-02-03T18:33:13.493Z,101894.72
2023-02-03T18:35:40.038Z,101892.75
2023-02-03T18:38:07.934Z,101890.47
2023-02-03T18:40:37.730Z,101891.00
2023-02-03T18:43:04.289Z,101889.56
2023-02-03T18:45:31.118Z,101895.47
2023-02-03T18:47:57.680Z,101890.66
2023-02-03T18:50:24.298Z,101899.34
2023-02-03T18:52:52.754Z,101898.22
2023-02-03T18:55:19.296Z,101893.13
2023-02-03T18:57:47.185Z,101897.03
2023-02-03T19:00:14.345Z,101884.66
2023-02-03T19:02:41.027Z,101899.81
2023-02-03T19:05:08.696Z,101894.19
2023-02-03T19:07:35.596Z,101895.56
2023-02-03T19:10:02.222Z,101896.41
2023-02-03T19:12:29.068Z,101893.88
2023-02-03T19:14:55.726Z,101890.78
2023-02-03T19:17:23.581Z,101894.72
2023-02-03T19:19:50.236Z,101885.19
2023-02-03T19:22:16.854Z,101879.56
2023-02-03T19:24:43.419Z,101889.09
2023-02-03T19:27:10.072Z,101888.28
2023-02-03T19:29:39.283Z,101887.44
2023-02-03T19:32:08.124Z,101883.19
2023-02-03T19:34:34.741Z,101895.25
2023-02-03T19:37:01.473Z,101889.66
2023-02-03T19:39:28.045Z,101893.81
2023-02-03T19:41:54.661Z,101890.19
2023-02-03T19:44:21.395Z,101895.22
2023-02-03T19:46:48.127Z,101891.84
2023-02-03T19:49:15.352Z,101892.38
2023-02-03T19:51:42.518Z,101894.31
2023-02-03T19:54:12.633Z,101895.97
2023-02-03T19:56:39.189Z,101897.94
2023-02-03T19:59:05.850Z,101898.19
2023-02-03T20:01:32.571Z,101895.06
2023-02-03T20:04:00.136Z,101896.44
2023-02-03T20:06:26.961Z,101895.03
2023-02-03T20:08:53.714Z,101904.00
2023-02-03T20:11:20.630Z,101898.88
2023-02-03T20:13:47.300Z,101905.00
2023-02-03T20:16:14.179Z,101899.94
2023-02-03T20:18:40.882Z,101906.91
2023-02-03T20:21:07.571Z,101904.63
2023-02-03T20:23:34.414Z,101894.81
2023-02-03T20:26:01.224Z,101904.59
2023-02-03T20:28:27.892Z,101905.72
2023-02-03T20:30:56.735Z,101900.63
2023-02-03T20:33:24.497Z,101905.63
2023-02-03T20:35:52.254Z,101895.78
2023-02-03T20:38:18.881Z,101895.47
2023-02-03T20:40:46.124Z,101896.59
2023-02-03T20:43:15.413Z,101899.91
2023-02-03T20:45:42.073Z,101904.97
2023-02-03T20:48:12.113Z,101903.53
2023-02-03T20:50:42.520Z,101895.34
2023-02-03T20:53:13.028Z,101902.34
2023-02-03T20:55:39.627Z,101905.16
2023-02-03T20:58:33.288Z,101905.41
2023-02-03T21:01:00.127Z,101905.69
2023-02-03T21:03:45.380Z,101905.69
2023-02-03T21:06:12.740Z,101905.69
2023-02-03T21:08:39.725Z,101907.03
2023-02-03T21:11:10.236Z,101908.41
2023-02-03T21:13:36.933Z,101905.59
2023-02-03T21:16:06.437Z,101910.97
2023-02-03T21:18:48.748Z,101909.00
2023-02-03T21:21:16.380Z,101913.25
2023-02-03T21:23:46.938Z,101909.06
2023-02-03T21:26:19.002Z,101911.84
2023-02-03T21:28:46.739Z,101912.19
2023-02-03T21:31:39.822Z,101917.84
2023-02-03T21:34:22.002Z,101919.81
2023-02-03T21:36:48.715Z,101918.09
2023-02-03T21:39:47.807Z,101920.88
2023-02-03T21:42:17.805Z,101914.94
2023-02-03T21:44:44.381Z,101922.75
2023-02-03T21:47:17.678Z,101916.31
2023-02-03T21:49:44.364Z,101914.63
2023-02-03T21:52:14.046Z,101914.28
2023-02-03T21:54:42.162Z,101916.78
2023-02-03T21:57:10.519Z,101915.34
2023-02-03T21:59:38.666Z,101925.69
2023-02-03T22:02:17.493Z,101924.00
2023-02-03T22:04:44.022Z,101931.31
2023-02-03T22:07:14.455Z,101923.13
2023-02-03T22:09:41.674Z,101914.41
2023-02-03T22:12:08.280Z,101916.66
2023-02-03T22:14:34.905Z,101919.97
2023-02-03T22:17:01.514Z,101917.69
2023-02-03T22:19:28.134Z,101907.59
2023-02-03T22:21:54.752Z,101911.47
2023-02-03T22:24:21.439Z,101914.28
2023-02-03T22:26:48.077Z,101910.91
2023-02-03T22:29:14.706Z,101910.06
2023-02-03T22:31:42.910Z,101902.69
2023-02-03T22:34:09.603Z,101913.56
2023-02-03T22:36:36.151Z,101915.44
2023-02-03T22:39:02.960Z,101908.34
2023-02-03T22:41:29.582Z,101913.28
2023-02-03T22:43:56.520Z,101914.31
2023-02-03T22:46:23.324Z,101908.66
2023-02-03T22:48:49.952Z,101917.81
2023-02-03T22:51:16.501Z,101919.69
2023-02-03T22:53:43.172Z,101920.22
2023-02-03T22:56:09.752Z,101912.81
2023-02-03T22:58:36.377Z,101921.09
2023-02-03T23:01:03.444Z,101923.81
2023-02-03T23:03:32.901Z,101920.94
2023-02-03T23:05:59.578Z,101920.25
2023-02-03T23:08:26.473Z,101920.91
2023-02-03T23:10:53.118Z,101916.03
2023-02-03T23:13:20.326Z,101915.06
2023-02-03T23:15:47.050Z,101913.56
2023-02-03T23:18:13.743Z,101905.91
2023-02-03T23:20:40.533Z,101911.75
2023-02-03T23:23:07.429Z,101907.28
2023-02-03T23:25:33.994Z,101922.34
2023-02-03T23:28:00.688Z,101921.75
2023-02-03T23:30:27.485Z,101918.84
2023-02-03T23:32:54.024Z,101915.97
2023-02-03T23:35:39.452Z,101916.34
2023-02-03T23:38:06.183Z,101921.88
2023-02-03T23:40:33.059Z,101915.56
2023-02-03T23:43:01.594Z,101916.56
2023-02-03T23:45:28.391Z,101907.84
2023-02-03T23:47:54.949Z,101914.03
2023-02-03T23:50:21.774Z,101917.41
2023-02-03T23:52:48.326Z,101909.78
2023-02-03T23:55:15.666Z,101913.56
2023-02-03T23:57:45.370Z,101912.72
